Puerto Maldonado, Peru

5:20 AM PET on October 25, 2014 (GMT -0500)
Padre Aldamiz | Change Station
CLOSE
Current Station
Airport
Location: Puerto Maldonado,
Elevation: 659 ft
Nearby Weather Stations

Elev 659 ft 12.61 °S, 69.23 °W | Updated 11 hours ago

Fog
Fog
74 °F
Feels Like 74 °F
N
2
Wind Variable Wind from SSE
Gusts mph

Today
High -- | Low -- °F
--% Chance of Precip.
Yesterday
High -- | Low -- °F
Precip. -- in
5:06 AM 5:35 PM
New Moon, 2% visible
Pressure 29.71 in
Visibility 6.2 miles
Clouds Scattered Clouds 3000 ft
Overcast 10000 ft
Dew Point 73 °F
Humidity 95%
Rainfall 0.00 in
Snow Depth Not available.
UV 0 out of 12
Pollen Not available.
Air Quality Not available.
Flu Activity Not available.
METAR SPTU 242300Z 00000KT 9999 SCT030 OVC100 24/23 Q1006 RMK BIRD HAZARD RWY 01/19 PP000

More Conditions Fewer Conditions

Pressure 29.71 in
Visibility 6.2 miles
Clouds Scattered Clouds 3000 ft
Overcast 10000 ft
Dew Point 73 °F
Humidity 95%
Rainfall 0.00 in
Snow Depth Not available.
UV 0 out of 12
Pollen Not available.
Air Quality Not available.
Flu Activity Not available.
METAR SPTU 242300Z 00000KT 9999 SCT030 OVC100 24/23 Q1006 RMK BIRD HAZARD RWY 01/19 PP000

More Conditions Fewer Conditions

10-Day Weather Forecast

Almanac

Astronomy

Oct. 25, 2014 Rise Set
Actual Time 5:06 AM PET 5:35 PM PET
Civil Twilight 4:44 AM PET 5:57 PM PET
Nautical Twilight 4:19 AM PET 6:22 PM PET
Astronomical Twilight 3:53 AM PET 6:48 PM PET
Moon 6:23 AM PET 7:18 PM PET
Length of Visible Light 13h 12m
Length of Day
12h 29m
Tomorrow will be 0m 39s longer.
New Moon, 2% of the Moon is Illuminated
Today
New Moon
Oct 30
First Quarter
Nov 6
Full
Nov 14
Last Quarter
Nov 22
New

Yesterday's Extremes

Country Highs Country Lows

Community

WunderPhotos

Upload Photos

1,764,806 photos uploaded!

Nearby

Snow Depth

Not available.

Earthquake Activity

City Distance Mag. Time & Date
No recent earthquake activity has been reported nearby.
Minimum magnitude displayed is 2.5.

Coastal Water Temperatures

Place Temperature
No Stations Reporting

Nearby Weather Stations